createdAt,value
2018-06-16T00:01:41.890Z,13.90
2018-06-16T00:04:10.663Z,13.80
2018-06-16T00:06:39.422Z,13.70
2018-06-16T00:09:09.162Z,13.70
2018-06-16T00:11:38.266Z,13.60
2018-06-16T00:14:07.143Z,13.60
2018-06-16T00:16:35.904Z,13.50
2018-06-16T00:19:04.773Z,13.50
2018-06-16T00:21:33.562Z,13.50
2018-06-16T00:24:02.323Z,13.50
2018-06-16T00:26:31.098Z,13.40
2018-06-16T00:28:59.878Z,13.40
2018-06-16T00:31:28.625Z,13.40
2018-06-16T00:33:57.395Z,13.40
2018-06-16T00:36:26.154Z,13.40
2018-06-16T00:38:54.986Z,13.30
2018-06-16T00:41:23.782Z,13.30
2018-06-16T00:43:52.738Z,13.30
2018-06-16T00:46:21.502Z,13.30
2018-06-16T00:48:50.273Z,13.30
2018-06-16T00:51:19.070Z,13.30
2018-06-16T00:53:47.836Z,13.30
2018-06-16T00:56:16.657Z,13.30
2018-06-16T00:58:45.446Z,13.30
2018-06-16T01:01:14.255Z,13.20
2018-06-16T01:03:43.062Z,13.20
2018-06-16T01:06:11.831Z,13.20
2018-06-16T01:08:40.681Z,13.20
2018-06-16T01:11:09.442Z,13.20
2018-06-16T01:13:38.214Z,13.10
2018-06-16T01:16:07.025Z,13.10
2018-06-16T01:18:35.786Z,13.10
2018-06-16T01:21:05.450Z,13.10
2018-06-16T01:23:34.225Z,13.10
2018-06-16T01:26:02.996Z,13.10
2018-06-16T01:28:31.761Z,13.10
2018-06-16T01:31:00.573Z,13.10
2018-06-16T01:33:29.342Z,13.10
2018-06-16T01:35:58.110Z,13.20
2018-06-16T01:38:26.868Z,13.20
2018-06-16T01:40:55.640Z,13.20
2018-06-16T01:43:24.421Z,13.30
2018-06-16T01:45:53.224Z,13.30
2018-06-16T01:48:21.982Z,13.40
2018-06-16T01:50:50.753Z,13.50
2018-06-16T01:53:19.594Z,13.50
2018-06-16T01:55:48.350Z,13.50
2018-06-16T01:58:17.115Z,13.50
2018-06-16T02:00:45.878Z,13.70
2018-06-16T02:03:14.643Z,13.80
2018-06-16T02:05:43.410Z,13.80
2018-06-16T02:08:12.166Z,13.80
2018-06-16T02:10:40.938Z,13.80
2018-06-16T02:13:09.733Z,13.80
2018-06-16T02:15:38.531Z,13.80
2018-06-16T02:18:07.327Z,13.80
2018-06-16T02:20:36.089Z,13.80
2018-06-16T02:23:04.899Z,13.80
2018-06-16T02:25:33.798Z,13.70
2018-06-16T02:28:02.566Z,13.80
2018-06-16T02:30:31.334Z,13.70
2018-06-16T02:33:00.134Z,13.80
2018-06-16T02:35:29.739Z,13.80
2018-06-16T02:37:58.527Z,13.70
2018-06-16T02:40:27.306Z,13.80
2018-06-16T02:42:56.120Z,13.80
2018-06-16T02:45:24.878Z,13.80
2018-06-16T02:47:53.658Z,13.90
2018-06-16T02:50:22.550Z,14.00
2018-06-16T02:52:51.575Z,14.00
2018-06-16T02:55:20.352Z,14.00
2018-06-16T02:57:49.163Z,14.10
2018-06-16T03:00:17.942Z,14.10
2018-06-16T03:02:46.707Z,14.10
2018-06-16T03:05:15.554Z,14.20
2018-06-16T03:07:44.330Z,14.20
2018-06-16T03:10:13.123Z,14.30
2018-06-16T03:12:41.922Z,14.30
2018-06-16T03:15:10.728Z,14.40
2018-06-16T03:17:39.495Z,14.50
2018-06-16T03:20:08.346Z,14.60
2018-06-16T03:22:37.134Z,14.80
2018-06-16T03:25:05.922Z,14.90
2018-06-16T03:27:34.714Z,15.10
2018-06-16T03:30:03.494Z,15.30
2018-06-16T03:32:32.255Z,15.40
2018-06-16T03:35:01.022Z,15.50
2018-06-16T03:37:29.802Z,15.60
2018-06-16T03:39:58.550Z,15.60
2018-06-16T03:42:27.289Z,15.70
2018-06-16T03:44:56.096Z,15.80
2018-06-16T03:47:24.863Z,15.90
2018-06-16T03:49:53.665Z,15.90
2018-06-16T03:52:22.442Z,16.00
2018-06-16T03:54:51.204Z,16.20
2018-06-16T03:57:20.007Z,16.30
2018-06-16T03:59:48.790Z,16.40
2018-06-16T04:02:17.564Z,16.50
2018-06-16T04:04:46.330Z,16.50
2018-06-16T04:07:15.114Z,16.60
2018-06-16T04:09:43.895Z,16.70
2018-06-16T04:12:12.679Z,16.70
2018-06-16T04:14:41.444Z,16.80
2018-06-16T04:17:18.936Z,16.90
2018-06-16T04:19:49.372Z,17.00
2018-06-16T04:22:18.180Z,17.10
2018-06-16T04:24:46.966Z,17.20
2018-06-16T04:27:15.737Z,17.20
2018-06-16T04:29:44.499Z,17.30
2018-06-16T04:32:13.263Z,17.40
2018-06-16T04:37:10.451Z,17.40
2018-06-16T04:39:39.198Z,17.40
2018-06-16T04:42:07.935Z,17.40
2018-06-16T04:44:36.706Z,17.40
2018-06-16T04:47:05.515Z,17.40
2018-06-16T04:49:34.277Z,17.30
2018-06-16T04:52:03.049Z,17.40
2018-06-16T04:54:31.813Z,17.30
2018-06-16T04:57:00.609Z,17.40
2018-06-16T04:59:29.421Z,17.40
2018-06-16T05:01:58.267Z,17.40
2018-06-16T05:04:27.087Z,17.40
2018-06-16T05:06:55.858Z,17.30
2018-06-16T05:09:24.614Z,17.30
2018-06-16T05:11:53.392Z,17.30
2018-06-16T05:14:22.154Z,17.20
2018-06-16T05:16:50.932Z,17.20
2018-06-16T05:19:19.702Z,17.10
2018-06-16T05:21:48.463Z,17.10
2018-06-16T05:24:17.205Z,17.30
2018-06-16T05:26:45.989Z,17.50
2018-06-16T05:29:14.794Z,17.60
2018-06-16T05:31:43.554Z,17.70
2018-06-16T05:34:12.346Z,17.80
2018-06-16T05:36:41.113Z,17.80
2018-06-16T05:39:10.757Z,17.70
2018-06-16T05:41:39.534Z,17.80
2018-06-16T05:44:08.309Z,17.90
2018-06-16T05:46:37.089Z,18.00
2018-06-16T05:49:06.126Z,18.10
2018-06-16T05:51:34.955Z,18.10
2018-06-16T05:54:03.763Z,18.20
2018-06-16T05:56:32.536Z,18.20
2018-06-16T05:59:01.306Z,18.10
2018-06-16T06:01:30.107Z,18.10
2018-06-16T06:03:58.954Z,18.10
2018-06-16T06:06:27.733Z,18.30
2018-06-16T06:08:56.523Z,18.30
2018-06-16T06:11:25.307Z,18.40
2018-06-16T06:13:54.602Z,18.40
2018-06-16T06:16:23.449Z,18.50
2018-06-16T06:18:52.218Z,18.50
2018-06-16T06:21:21.046Z,18.60
2018-06-16T06:23:49.829Z,18.70
2018-06-16T06:26:18.606Z,18.90
2018-06-16T06:28:47.382Z,19.00
2018-06-16T06:31:16.214Z,19.00
2018-06-16T06:33:45.090Z,19.10
2018-06-16T06:36:13.867Z,19.10
2018-06-16T06:38:43.625Z,19.20
2018-06-16T06:41:12.850Z,19.30
2018-06-16T06:43:41.612Z,19.40
2018-06-16T06:46:10.386Z,19.60
2018-06-16T06:48:39.141Z,19.60
2018-06-16T06:51:07.935Z,19.60
2018-06-16T06:53:36.722Z,19.60
2018-06-16T06:56:05.522Z,19.80
2018-06-16T06:58:34.403Z,20.00
2018-06-16T07:01:03.163Z,20.20
2018-06-16T07:03:31.946Z,20.20
2018-06-16T07:08:31.990Z,20.20
2018-06-16T07:11:00.873Z,20.20
2018-06-16T07:13:29.674Z,20.20
2018-06-16T07:15:58.435Z,20.20
2018-06-16T07:18:27.234Z,20.20
2018-06-16T07:20:56.026Z,20.40
2018-06-16T07:23:24.782Z,20.60
2018-06-16T07:25:53.547Z,20.60
2018-06-16T07:28:22.310Z,20.50
2018-06-16T07:30:51.086Z,20.70
2018-06-16T07:33:19.858Z,20.80
2018-06-16T07:35:48.630Z,20.80
2018-06-16T07:38:17.398Z,20.80
2018-06-16T07:40:46.174Z,20.80
2018-06-16T07:43:14.954Z,20.80
2018-06-16T07:45:43.702Z,20.80
2018-06-16T07:48:12.486Z,20.90
2018-06-16T07:50:41.347Z,20.80
2018-06-16T07:53:10.150Z,20.80
2018-06-16T07:55:38.910Z,21.00
2018-06-16T07:58:07.706Z,21.00
2018-06-16T08:03:04.866Z,21.00
2018-06-16T08:05:33.666Z,21.00
2018-06-16T08:08:02.480Z,21.10
2018-06-16T08:10:31.302Z,21.20
2018-06-16T08:13:00.088Z,21.20
2018-06-16T08:15:28.871Z,21.00
2018-06-16T08:17:57.663Z,20.90
2018-06-16T08:20:26.544Z,20.90
2018-06-16T08:22:55.386Z,20.80
2018-06-16T08:25:24.166Z,20.80
2018-06-16T08:30:21.287Z,21.10
2018-06-16T08:32:50.060Z,21.60
2018-06-16T08:35:18.842Z,22.40
2018-06-16T08:37:47.655Z,22.50
2018-06-16T08:40:16.474Z,23.00
2018-06-16T08:42:45.229Z,23.40
2018-06-16T08:45:13.996Z,23.60
2018-06-16T08:47:42.798Z,23.90
2018-06-16T08:50:11.548Z,23.50
2018-06-16T08:52:40.322Z,24.00
2018-06-16T08:55:09.078Z,24.20
2018-06-16T08:57:37.874Z,23.90
2018-06-16T09:00:06.703Z,24.00
2018-06-16T09:02:35.579Z,24.40
2018-06-16T09:05:04.414Z,24.90
2018-06-16T09:07:33.234Z,25.00
2018-06-16T09:10:02.002Z,25.10
2018-06-16T09:12:30.763Z,24.90
2018-06-16T09:14:59.542Z,25.00
2018-06-16T09:17:28.327Z,24.60
2018-06-16T09:19:57.337Z,24.30
2018-06-16T09:22:26.116Z,23.40
2018-06-16T09:24:54.890Z,23.40
2018-06-16T09:27:23.914Z,23.10
2018-06-16T09:29:52.751Z,23.20
2018-06-16T09:32:21.546Z,23.20
2018-06-16T09:34:50.313Z,22.90
2018-06-16T09:37:19.090Z,22.80
2018-06-16T09:39:47.862Z,22.50
2018-06-16T09:42:16.628Z,22.50
2018-06-16T09:44:45.419Z,22.60
2018-06-16T09:47:20.606Z,22.70
2018-06-16T09:49:49.510Z,22.60
2018-06-16T09:52:18.282Z,22.70
2018-06-16T09:54:47.050Z,22.80
2018-06-16T09:57:15.851Z,22.60
2018-06-16T09:59:44.649Z,22.90
2018-06-16T10:02:13.433Z,22.90
2018-06-16T10:04:42.235Z,23.00
2018-06-16T10:07:11.030Z,23.10
2018-06-16T10:09:39.913Z,23.20
2018-06-16T10:12:08.721Z,23.20
2018-06-16T10:14:37.539Z,23.40
2018-06-16T10:17:06.422Z,23.30
2018-06-16T10:19:35.251Z,23.10
2018-06-16T10:22:04.030Z,23.20
2018-06-16T10:24:32.784Z,23.10
2018-06-16T10:27:01.580Z,23.20
2018-06-16T10:29:30.341Z,23.30
2018-06-16T10:31:59.126Z,23.40
2018-06-16T10:34:27.893Z,23.50
2018-06-16T10:36:56.686Z,23.50
2018-06-16T10:39:28.546Z,23.60
2018-06-16T10:41:57.315Z,23.80
2018-06-16T10:44:26.124Z,24.20
2018-06-16T10:46:54.950Z,24.00
2018-06-16T10:49:23.898Z,24.00
2018-06-16T10:51:52.734Z,24.30
2018-06-16T10:54:21.506Z,24.00
2018-06-16T10:56:50.270Z,23.80
2018-06-16T10:59:19.082Z,23.80
2018-06-16T11:01:47.846Z,24.00
2018-06-16T11:04:16.706Z,24.00
2018-06-16T11:06:45.482Z,23.90
2018-06-16T11:09:14.299Z,23.70
2018-06-16T11:11:43.083Z,23.70
2018-06-16T11:14:11.821Z,23.50
2018-06-16T11:16:40.555Z,23.60
2018-06-16T11:19:09.398Z,23.90
2018-06-16T11:21:38.198Z,24.00
2018-06-16T11:24:07.058Z,23.90
2018-06-16T11:26:35.819Z,23.80
2018-06-16T11:29:04.614Z,23.80
2018-06-16T11:31:33.374Z,23.80
2018-06-16T11:34:02.148Z,24.20
2018-06-16T11:36:30.928Z,24.70
2018-06-16T11:38:59.706Z,24.70
2018-06-16T11:41:29.032Z,24.80
2018-06-16T11:43:57.821Z,24.80
2018-06-16T11:46:26.556Z,24.40
2018-06-16T11:48:55.331Z,24.10
2018-06-16T11:51:24.134Z,23.90
2018-06-16T11:53:52.916Z,24.00
2018-06-16T11:56:21.690Z,24.00
2018-06-16T11:58:50.423Z,24.00
2018-06-16T12:01:19.194Z,24.30
2018-06-16T12:03:47.974Z,24.60
2018-06-16T12:06:16.854Z,25.00
2018-06-16T12:08:45.665Z,25.10
2018-06-16T12:11:14.455Z,25.60
2018-06-16T12:13:43.242Z,25.80
2018-06-16T12:16:12.046Z,25.50
2018-06-16T12:18:40.819Z,25.70
2018-06-16T12:23:38.074Z,23.80
2018-06-16T12:26:06.924Z,25.40
2018-06-16T12:28:35.685Z,25.20
2018-06-16T12:31:04.526Z,25.10
2018-06-16T12:33:33.301Z,25.30
2018-06-16T12:36:02.082Z,25.40
2018-06-16T12:38:30.870Z,25.30
2018-06-16T12:40:59.604Z,25.20
2018-06-16T12:43:28.438Z,25.20
2018-06-16T12:45:57.213Z,25.30
2018-06-16T12:48:26.003Z,25.30
2018-06-16T12:50:54.930Z,25.80
2018-06-16T12:53:23.698Z,26.20
2018-06-16T12:55:52.470Z,26.30
2018-06-16T12:58:21.275Z,26.30
2018-06-16T13:00:50.083Z,26.50
2018-06-16T13:03:18.858Z,26.60
2018-06-16T13:05:47.625Z,26.80
2018-06-16T13:08:16.391Z,26.30
2018-06-16T13:10:45.178Z,26.10
2018-06-16T13:13:13.967Z,26.40
2018-06-16T13:15:42.772Z,26.70
2018-06-16T13:18:14.615Z,27.50
2018-06-16T13:20:43.441Z,28.00
2018-06-16T13:23:12.222Z,27.90
2018-06-16T13:25:41.069Z,28.20
2018-06-16T13:28:09.854Z,28.40
2018-06-16T13:30:38.602Z,28.40
2018-06-16T13:33:07.371Z,28.80
2018-06-16T13:35:36.446Z,29.10
2018-06-16T13:38:05.329Z,29.20
2018-06-16T13:40:34.106Z,29.30
2018-06-16T13:43:02.919Z,29.70
2018-06-16T13:45:31.715Z,29.60
2018-06-16T13:48:00.488Z,29.90
2018-06-16T13:50:29.296Z,30.30
2018-06-16T13:52:58.108Z,31.00
2018-06-16T13:55:26.886Z,31.40
2018-06-16T13:57:55.686Z,31.80
2018-06-16T14:00:24.514Z,31.70
2018-06-16T14:02:53.299Z,31.70
2018-06-16T14:05:22.102Z,31.60
2018-06-16T14:07:50.879Z,31.90
2018-06-16T14:10:19.638Z,31.90
2018-06-16T14:12:48.426Z,32.00
2018-06-16T14:15:17.226Z,32.50
2018-06-16T14:17:46.061Z,32.40
2018-06-16T14:20:14.805Z,32.70
2018-06-16T14:22:43.575Z,33.10
2018-06-16T14:25:12.356Z,33.30
2018-06-16T14:27:41.274Z,33.30
2018-06-16T14:30:10.066Z,33.70
2018-06-16T14:32:38.821Z,33.60
2018-06-16T14:35:07.602Z,33.30
2018-06-16T14:37:36.363Z,33.30
2018-06-16T14:40:05.235Z,33.10
2018-06-16T14:42:34.106Z,33.10
2018-06-16T14:45:02.946Z,32.70
2018-06-16T14:47:31.722Z,33.30
2018-06-16T14:50:00.618Z,33.00
2018-06-16T14:52:29.485Z,33.30
2018-06-16T14:54:58.295Z,33.40
2018-06-16T14:57:27.062Z,33.50
2018-06-16T14:59:55.834Z,33.70
2018-06-16T15:02:24.601Z,33.90
2018-06-16T15:04:53.394Z,33.40
2018-06-16T15:07:22.143Z,32.60
2018-06-16T15:09:50.916Z,32.30
2018-06-16T15:12:19.755Z,31.50
2018-06-16T15:14:48.518Z,30.70
2018-06-16T15:17:17.282Z,30.90
2018-06-16T15:19:46.106Z,30.90
2018-06-16T15:22:15.114Z,30.80
2018-06-16T15:24:43.918Z,30.30
2018-06-16T15:27:12.734Z,30.00
2018-06-16T15:29:41.506Z,29.70
2018-06-16T15:32:10.317Z,29.60
2018-06-16T15:34:39.130Z,29.60
2018-06-16T15:37:07.926Z,29.00
2018-06-16T15:39:36.703Z,28.90
2018-06-16T15:42:05.547Z,28.50
2018-06-16T15:44:34.362Z,28.80
2018-06-16T15:47:03.162Z,29.20
2018-06-16T15:49:31.942Z,29.30
2018-06-16T15:52:00.702Z,29.50
2018-06-16T15:54:29.478Z,29.60
2018-06-16T15:56:58.234Z,30.00
2018-06-16T15:59:27.002Z,30.50
2018-06-16T16:01:55.773Z,30.90
2018-06-16T16:04:24.537Z,30.90
2018-06-16T16:06:53.310Z,30.30
2018-06-16T16:09:22.118Z,29.50
2018-06-16T16:11:50.882Z,29.30
2018-06-16T16:14:19.681Z,29.20
2018-06-16T16:16:48.502Z,29.00
2018-06-16T16:19:17.294Z,29.10
2018-06-16T16:21:46.114Z,29.20
2018-06-16T16:24:14.887Z,29.50
2018-06-16T16:26:43.673Z,29.60
2018-06-16T16:29:12.521Z,29.70
2018-06-16T16:31:41.307Z,29.50
2018-06-16T16:34:10.074Z,29.20
2018-06-16T16:36:38.862Z,28.60
2018-06-16T16:39:08.779Z,28.30
2018-06-16T16:41:37.836Z,28.30
2018-06-16T16:44:06.618Z,28.50
2018-06-16T16:46:35.490Z,28.60
2018-06-16T16:49:04.318Z,28.50
2018-06-16T16:51:33.122Z,28.70
2018-06-16T16:54:01.940Z,28.90
2018-06-16T16:56:30.771Z,29.20
2018-06-16T16:58:59.606Z,29.50
2018-06-16T17:01:28.378Z,29.80
2018-06-16T17:03:57.166Z,29.80
2018-06-16T17:06:25.948Z,29.70
2018-06-16T17:08:54.769Z,29.40
2018-06-16T17:11:23.538Z,29.20
2018-06-16T17:13:52.312Z,29.10
2018-06-16T17:16:21.114Z,29.20
2018-06-16T17:18:49.933Z,29.60
2018-06-16T17:21:18.720Z,30.10
2018-06-16T17:23:47.550Z,30.10
2018-06-16T17:26:16.354Z,29.80
2018-06-16T17:28:45.111Z,29.40
2018-06-16T17:31:13.894Z,28.60
2018-06-16T17:33:42.688Z,28.00
2018-06-16T17:36:11.463Z,27.60
2018-06-16T17:38:40.245Z,26.80
2018-06-16T17:41:09.042Z,26.30
2018-06-16T17:43:37.871Z,25.90
2018-06-16T17:46:06.663Z,25.50
2018-06-16T17:48:35.484Z,25.00
2018-06-16T17:51:04.301Z,24.60
2018-06-16T17:53:33.061Z,24.40
2018-06-16T17:56:01.866Z,24.10
2018-06-16T17:58:30.634Z,23.90
2018-06-16T18:00:59.453Z,23.70
2018-06-16T18:03:28.202Z,23.50
2018-06-16T18:05:56.971Z,23.20
2018-06-16T18:08:25.742Z,22.90
2018-06-16T18:10:54.520Z,22.90
2018-06-16T18:13:23.341Z,22.60
2018-06-16T18:15:53.066Z,22.20
2018-06-16T18:18:21.822Z,22.00
2018-06-16T18:20:50.862Z,22.00
2018-06-16T18:23:19.661Z,21.90
2018-06-16T18:25:48.443Z,21.70
2018-06-16T18:28:17.247Z,21.50
2018-06-16T18:30:46.014Z,21.40
2018-06-16T18:33:14.786Z,21.30
2018-06-16T18:35:43.530Z,21.20
2018-06-16T18:38:12.306Z,21.00
2018-06-16T18:40:41.091Z,21.00
2018-06-16T18:43:09.939Z,20.80
2018-06-16T18:45:38.699Z,20.70
2018-06-16T18:48:07.478Z,20.50
2018-06-16T18:50:36.278Z,20.40
2018-06-16T18:53:05.042Z,20.00
2018-06-16T18:55:33.838Z,19.80
2018-06-16T18:58:02.665Z,19.80
2018-06-16T19:00:31.455Z,19.60
2018-06-16T19:03:00.247Z,19.50
2018-06-16T19:05:29.058Z,19.40
2018-06-16T19:07:57.860Z,19.20
2018-06-16T19:10:26.674Z,19.00
2018-06-16T19:12:55.514Z,18.80
2018-06-16T19:15:24.330Z,18.70
2018-06-16T19:17:53.176Z,18.70
2018-06-16T19:20:21.952Z,18.50
2018-06-16T19:22:50.723Z,18.40
2018-06-16T19:25:19.492Z,18.20
2018-06-16T19:27:48.294Z,18.10
2018-06-16T19:30:17.106Z,18.00
2018-06-16T19:32:45.882Z,17.90
2018-06-16T19:35:14.711Z,17.80
2018-06-16T19:37:43.506Z,17.70
2018-06-16T19:40:12.284Z,17.60
2018-06-16T19:42:41.014Z,17.50
2018-06-16T19:45:09.825Z,17.50
2018-06-16T19:47:38.726Z,17.40
2018-06-16T19:50:07.501Z,17.30
2018-06-16T19:52:36.295Z,17.20
2018-06-16T19:55:05.174Z,17.20
2018-06-16T19:57:33.942Z,17.00
2018-06-16T20:00:02.731Z,17.00
2018-06-16T20:02:31.510Z,17.00
2018-06-16T20:05:00.947Z,16.90
2018-06-16T20:07:29.699Z,16.90
2018-06-16T20:09:58.495Z,16.80
2018-06-16T20:12:27.519Z,16.70
2018-06-16T20:14:56.387Z,16.60
2018-06-16T20:17:25.251Z,16.60
2018-06-16T20:19:54.094Z,16.50
2018-06-16T20:22:22.883Z,16.40
2018-06-16T20:24:51.749Z,16.40
2018-06-16T20:27:20.534Z,16.30
2018-06-16T20:29:49.367Z,16.30
2018-06-16T20:32:18.190Z,16.10
2018-06-16T20:34:46.963Z,16.10
2018-06-16T20:37:15.802Z,16.10
2018-06-16T20:39:44.590Z,16.10
2018-06-16T20:42:13.354Z,16.00
2018-06-16T20:44:42.187Z,16.00
2018-06-16T20:47:10.962Z,15.90
2018-06-16T20:49:39.810Z,15.90
2018-06-16T20:52:08.592Z,15.90
2018-06-16T20:54:37.459Z,15.80
2018-06-16T20:57:06.247Z,15.70
2018-06-16T20:59:35.015Z,15.70
2018-06-16T21:02:03.854Z,15.60
2018-06-16T21:04:32.671Z,15.60
2018-06-16T21:07:01.450Z,15.60
2018-06-16T21:09:30.218Z,15.50
2018-06-16T21:11:58.995Z,15.50
2018-06-16T21:14:27.782Z,15.40
2018-06-16T21:16:56.595Z,15.40
2018-06-16T21:19:25.384Z,15.30
2018-06-16T21:21:57.758Z,15.20
2018-06-16T21:24:26.587Z,15.20
2018-06-16T21:26:55.366Z,15.20
2018-06-16T21:29:25.145Z,15.20
2018-06-16T21:31:53.912Z,15.10
2018-06-16T21:34:22.700Z,15.10
2018-06-16T21:36:51.477Z,15.00
2018-06-16T21:39:20.246Z,14.90
2018-06-16T21:41:49.014Z,14.90
2018-06-16T21:44:17.824Z,14.90
2018-06-16T21:46:46.594Z,14.80
2018-06-16T21:49:15.388Z,14.80
2018-06-16T21:51:44.171Z,14.80
2018-06-16T21:54:12.950Z,14.80
2018-06-16T21:56:41.805Z,14.80
2018-06-16T21:59:10.502Z,14.80
2018-06-16T22:01:39.318Z,14.80
2018-06-16T22:04:08.133Z,14.70
2018-06-16T22:06:36.910Z,14.60
2018-06-16T22:09:08.526Z,14.60
2018-06-16T22:11:37.358Z,14.60
2018-06-16T22:14:06.171Z,14.50
2018-06-16T22:16:35.026Z,14.50
2018-06-16T22:19:03.847Z,14.40
2018-06-16T22:21:32.674Z,14.40
2018-06-16T22:24:01.517Z,14.30
2018-06-16T22:26:30.382Z,14.20
2018-06-16T22:28:59.191Z,14.20
2018-06-16T22:31:27.994Z,14.20
2018-06-16T22:33:56.809Z,14.10
2018-06-16T22:36:25.610Z,14.20
2018-06-16T22:38:54.406Z,14.20
2018-06-16T22:41:23.175Z,14.10
2018-06-16T22:43:51.941Z,14.10
2018-06-16T22:46:20.734Z,14.10
2018-06-16T22:48:49.552Z,14.00
2018-06-16T22:51:18.357Z,13.90
2018-06-16T22:53:47.156Z,13.90
2018-06-16T22:56:15.946Z,13.90
2018-06-16T22:58:44.731Z,13.90
2018-06-16T23:01:13.514Z,13.90
2018-06-16T23:03:42.282Z,14.00
2018-06-16T23:06:11.018Z,14.00
2018-06-16T23:08:39.802Z,14.10
2018-06-16T23:11:08.605Z,14.20
2018-06-16T23:13:37.382Z,14.20
2018-06-16T23:16:06.178Z,14.20
2018-06-16T23:18:34.979Z,14.20
2018-06-16T23:21:03.884Z,14.30
2018-06-16T23:23:32.674Z,14.30
2018-06-16T23:26:01.458Z,14.40
2018-06-16T23:28:30.248Z,14.40
2018-06-16T23:30:59.093Z,14.50
2018-06-16T23:33:27.901Z,14.60
2018-06-16T23:35:56.647Z,14.60
2018-06-16T23:38:25.434Z,14.60
2018-06-16T23:40:54.210Z,14.60
2018-06-16T23:43:22.981Z,14.50
2018-06-16T23:45:51.766Z,14.50
2018-06-16T23:48:20.582Z,14.50
2018-06-16T23:50:49.389Z,14.50
2018-06-16T23:53:18.209Z,14.50
2018-06-16T23:55:47.050Z,14.40
2018-06-16T23:58:15.946Z,14.40
